Time;durP1;ratioP1;P1;durP2;ratioP2;P2;SDS_P1;SDS_P2;PMS_P1;PMS_P2;Temp;Humidity;BMP_temperature;BMP_pressure;BME280_temperature;BME280_humidity;BME280_pressure;Samples;Min_cycle;Max_cycle;Signal;HPM_P1;HPM_P2
2022/08/08 08:59:00;;;;;;;2.05;1.00;;;25.80;67.00;;;;;;5676268;23;20094;-79
2022/08/08 09:01:29;;;;;;;1.17;1.08;;;25.50;67.50;;;;;;5015049;28;20056;-78
2022/08/08 09:04:00;;;;;;;3.08;1.05;;;25.70;68.60;;;;;;5014932;28;20121;-78
2022/08/08 09:06:27;;;;;;;;;;;25.70;67.30;;;;;;5015012;28;20040;-74
2022/08/08 09:09:07;;;;;;;2.25;1.00;;;26.20;67.50;;;;;;5014527;28;19916;-75
2022/08/08 09:11:34;;;;;;;0.95;0.88;;;26.40;67.00;;;;;;5014055;28;20037;-69
2022/08/08 09:14:02;;;;;;;5.60;1.20;;;26.50;67.00;;;;;;5014372;28;20041;-77
2022/08/08 09:16:29;;;;;;;3.88;1.10;;;26.60;67.20;;;;;;5006720;28;20579;-69
2022/08/08 09:18:56;;;;;;;1.50;0.82;;;26.10;66.80;;;;;;4992959;28;20041;-71
2022/08/08 09:21:23;;;;;;;1.52;1.15;;;25.80;67.30;;;;;;4991180;28;20073;-78
2022/08/08 09:23:49;;;;;;;3.13;1.10;;;25.90;67.00;;;;;;4992645;28;20034;-70
2022/08/08 09:26:40;;;;;;;1.67;1.10;;;25.60;66.30;;;;;;4994458;28;20053;-69
2022/08/08 09:29:07;;;;;;;1.20;0.80;;;25.80;66.80;;;;;;4992944;28;20050;-69
2022/08/08 09:32:14;;;;;;;1.40;1.13;;;26.40;67.30;;;;;;4991945;28;20133;-74
2022/08/08 09:34:45;;;;;;;1.13;0.98;;;26.40;66.70;;;;;;4993169;28;20050;-72
2022/08/08 09:37:13;;;;;;;2.17;1.33;;;26.20;67.50;;;;;;4991871;28;20076;-74
2022/08/08 09:40:04;;;;;;;0.98;0.90;;;26.60;66.60;;;;;;4992223;28;20497;-70
2022/08/08 09:42:39;;;;;;;1.70;1.17;;;26.10;66.80;;;;;;4990930;28;20065;-69
2022/08/08 09:45:20;;;;;;;1.77;1.17;;;26.10;66.60;;;;;;4992578;28;21238;-73
2022/08/08 09:47:47;;;;;;;1.60;0.80;;;26.20;67.20;;;;;;4994105;28;20143;-68
2022/08/08 09:50:16;;;;;;;2.45;1.08;;;26.10;67.40;;;;;;4992481;28;20043;-77
2022/08/08 09:52:51;;;;;;;1.33;1.00;;;26.10;66.70;;;;;;4991812;28;20046;-72
2022/08/08 09:55:18;;;;;;;1.13;0.90;;;26.60;67.20;;;;;;4992089;28;20054;-69
2022/08/08 09:58:10;;;;;;;1.08;0.90;;;26.60;66.20;;;;;;4994303;28;20042;-78
2022/08/08 10:00:37;;;;;;;1.27;0.90;;;26.40;66.10;;;;;;5011352;28;20133;-77
2022/08/08 10:03:04;;;;;;;0.85;0.85;;;26.60;66.40;;;;;;5011374;28;20046;-77
2022/08/08 10:05:35;;;;;;;0.95;0.85;;;26.40;65.10;;;;;;5011737;28;20527;-69
2022/08/08 10:08:02;;;;;;;1.10;1.00;;;26.30;65.00;;;;;;5011293;28;20136;-71
2022/08/08 10:10:31;;;;;;;0.95;0.85;;;26.70;63.60;;;;;;5010527;28;20092;-69
2022/08/08 10:12:57;;;;;;;1.33;1.00;;;26.60;64.30;;;;;;5011946;28;20042;-69
2022/08/08 10:15:34;;;;;;;1.33;1.17;;;26.40;63.10;;;;;;5010860;28;20053;-73
2022/08/08 10:18:01;;;;;;;2.45;1.10;;;26.60;63.30;;;;;;5011570;28;20041;-69
2022/08/08 10:20:28;;;;;;;1.00;0.73;;;26.20;63.90;;;;;;5011717;28;20116;-69
2022/08/08 10:23:03;;;;;;;1.95;1.00;;;26.50;63.20;;;;;;5011288;28;20512;-68
2022/08/08 10:25:29;;;;;;;3.25;1.10;;;26.50;63.50;;;;;;5011497;28;20042;-74
2022/08/08 10:27:56;;;;;;;1.75;1.15;;;26.80;62.50;;;;;;5011465;28;20129;-68
2022/08/08 10:30:24;;;;;;;1.25;0.98;;;26.70;63.20;;;;;;5010662;28;20794;-69
2022/08/08 10:32:58;;;;;;;1.02;0.70;;;26.90;62.60;;;;;;5011476;28;20072;-68
2022/08/08 10:35:26;;;;;;;1.33;0.95;;;26.90;62.90;;;;;;5012294;28;20389;-68
2022/08/08 10:37:57;;;;;;;1.73;1.10;;;27.00;63.20;;;;;;5011351;28;20045;-68
2022/08/08 10:40:25;;;;;;;1.10;0.70;;;27.00;61.10;;;;;;5009640;28;20049;-69
2022/08/08 10:42:59;;;;;;;6.43;0.90;;;26.80;61.90;;;;;;5010790;28;20496;-68
2022/08/08 10:45:25;;;;;;;2.22;0.88;;;27.20;60.30;;;;;;5010287;28;20049;-76
2022/08/08 10:47:57;;;;;;;1.13;0.93;;;26.80;61.50;;;;;;5012557;28;20050;-73
2022/08/08 10:50:34;;;;;;;1.17;0.90;;;26.90;58.90;;;;;;5013120;28;20076;-69
2022/08/08 10:53:05;;;;;;;1.50;0.95;;;27.00;59.50;;;;;;5013019;28;20049;-67
2022/08/08 10:55:31;;;;;;;0.60;0.60;;;27.00;60.00;;;;;;5013091;28;20100;-69
2022/08/08 10:58:05;;;;;;;2.95;1.05;;;27.30;58.30;;;;;;5012020;28;20528;-70
2022/08/08 11:00:32;;;;;;;1.95;1.05;;;27.50;59.40;;;;;;5012142;28;20038;-71
2022/08/08 11:03:15;;;;;;;1.50;1.20;;;27.30;58.70;;;;;;5009285;28;20046;-75
2022/08/08 11:05:52;;;;;;;1.40;1.05;;;27.70;60.10;;;;;;5010997;28;20048;-74
2022/08/08 11:08:27;;;;;;;0.95;0.90;;;27.20;59.20;;;;;;5011496;28;20049;-70
2022/08/08 11:11:08;;;;;;;1.65;1.02;;;27.30;60.60;;;;;;5012622;28;20038;-77
2022/08/08 11:13:42;;;;;;;1.65;0.95;;;27.50;60.50;;;;;;5010976;28;20077;-69
2022/08/08 11:16:12;;;;;;;0.73;0.73;;;27.60;59.20;;;;;;5010407;28;20053;-72
2022/08/08 11:18:38;;;;;;;1.27;1.10;;;27.20;59.40;;;;;;5011207;28;20088;-69
2022/08/08 11:21:06;;;;;;;0.70;0.68;;;27.10;60.40;;;;;;5012696;28;20455;-69
2022/08/08 11:23:33;;;;;;;3.15;1.17;;;26.80;61.90;;;;;;5011525;28;20092;-69
2022/08/08 11:26:04;;;;;;;1.45;0.70;;;26.90;62.90;;;;;;5010817;28;20528;-72
2022/08/08 11:28:34;;;;;;;1.52;0.90;;;27.70;62.40;;;;;;5010982;28;20069;-68
2022/08/08 11:31:01;;;;;;;5.75;1.00;;;27.60;62.70;;;;;;5009717;28;20050;-72
2022/08/08 11:33:29;;;;;;;3.15;1.10;;;27.20;62.60;;;;;;5011196;28;20034;-70
2022/08/08 11:35:55;;;;;;;1.10;0.80;;;27.30;62.80;;;;;;5012957;28;20104;-74
2022/08/08 11:38:22;;;;;;;1.50;1.15;;;27.80;61.00;;;;;;5014124;28;20038;-70
2022/08/08 11:40:51;;;;;;;1.75;1.00;;;27.60;62.40;;;;;;5012433;28;20096;-69
2022/08/08 11:43:17;;;;;;;1.35;1.00;;;27.70;62.50;;;;;;5012590;28;20048;-75
2022/08/08 11:45:46;;;;;;;2.13;1.27;;;27.60;62.60;;;;;;5013465;28;20036;-75
2022/08/08 11:48:16;;;;;;;1.35;1.15;;;27.40;62.20;;;;;;5013245;28;20158;-69
2022/08/08 11:50:43;;;;;;;1.10;1.00;;;27.50;62.20;;;;;;5013760;28;20084;-73
2022/08/08 11:53:09;;;;;;;0.93;0.85;;;27.60;62.10;;;;;;5013365;28;20045;-69
2022/08/08 11:55:47;;;;;;;1.40;1.00;;;27.40;62.10;;;;;;5013563;28;20088;-73
2022/08/08 11:58:13;;;;;;;1.35;0.80;;;27.70;62.40;;;;;;5013765;28;20041;-70
2022/08/08 12:00:47;;;;;;;0.98;0.82;;;27.80;61.00;;;;;;5013674;28;20053;-71
2022/08/08 12:03:32;;;;;;;4.38;1.30;;;27.80;61.00;;;;;;5014100;28;20081;-74
2022/08/08 12:05:59;;;;;;;1.40;1.05;;;27.60;62.00;;;;;;4993906;28;20042;-71
2022/08/08 12:08:37;;;;;;;1.60;0.98;;;27.50;61.10;;;;;;4995098;28;20068;-72
2022/08/08 12:11:11;;;;;;;2.90;0.88;;;28.10;60.10;;;;;;4995574;28;20571;-74
2022/08/08 12:13:37;;;;;;;1.30;0.90;;;;;;;;;;4995472;28;20042;-76
2022/08/08 12:16:15;;;;;;;2.58;0.80;;;28.40;60.00;;;;;;4995087;28;20196;-76
2022/08/08 12:18:48;;;;;;;2.22;0.90;;;27.80;61.40;;;;;;5005269;28;20125;-75
2022/08/08 12:21:32;;;;;;;1.65;0.95;;;27.80;60.70;;;;;;5031137;28;20041;-70
2022/08/08 12:24:06;;;;;;;1.30;0.85;;;27.60;59.90;;;;;;5015555;28;20129;-69
2022/08/08 12:26:47;;;;;;;1.83;1.08;;;27.50;60.40;;;;;;5013538;28;20049;-68
2022/08/08 12:29:20;;;;;;;1.38;1.08;;;27.80;59.70;;;;;;5013383;28;20038;-69
2022/08/08 12:31:46;;;;;;;1.63;0.98;;;27.60;59.80;;;;;;5019182;28;20034;-68
2022/08/08 12:34:12;;;;;;;2.08;0.80;;;27.90;60.20;;;;;;5025012;28;20049;-69
2022/08/08 12:36:42;;;;;;;2.22;1.10;;;28.00;59.80;;;;;;5020707;28;20174;-67
2022/08/08 12:39:08;;;;;;;;;;;27.60;60.30;;;;;;5034427;28;20512;-68
2022/08/08 12:41:37;;;;;;;0.90;0.80;;;28.00;58.70;;;;;;5034697;28;20002;-68
2022/08/08 12:44:08;;;;;;;1.73;1.00;;;28.20;58.40;;;;;;5034802;28;20403;-70
2022/08/08 12:46:35;;;;;;;0.90;0.80;;;28.40;58.00;;;;;;5034281;28;20045;-74
2022/08/08 12:49:03;;;;;;;1.75;1.13;;;28.00;57.40;;;;;;5034331;28;20037;-68
2022/08/08 12:51:43;;;;;;;3.30;1.00;;;28.30;58.00;;;;;;5034394;28;20069;-67
2022/08/08 12:54:23;;;;;;;1.33;0.90;;;28.00;57.30;;;;;;5034327;28;20037;-68
2022/08/08 12:56:49;;;;;;;1.33;0.90;;;28.10;57.40;;;;;;5034569;28;20095;-67
2022/08/08 12:59:24;;;;;;;1.42;1.00;;;28.20;57.30;;;;;;5034562;28;20061;-67
2022/08/08 13:01:58;;;;;;;3.53;0.90;;;28.60;58.50;;;;;;5034594;28;20055;-67
2022/08/08 13:04:31;;;;;;;2.17;1.10;;;28.60;58.80;;;;;;5034417;28;20045;-74
2022/08/08 13:07:04;;;;;;;1.13;0.80;;;28.40;59.10;;;;;;5034276;28;20040;-67
2022/08/08 13:09:36;;;;;;;0.90;0.88;;;28.50;57.80;;;;;;5016500;28;20042;-67
2022/08/08 13:12:23;;;;;;;1.10;0.85;;;28.20;58.80;;;;;;5013729;28;20053;-68
2022/08/08 13:14:51;;;;;;;1.13;1.02;;;28.40;56.30;;;;;;4994746;28;20125;-69
2022/08/08 13:17:22;;;;;;;1.00;0.90;;;28.30;55.70;;;;;;4994677;28;20054;-69
2022/08/08 13:19:48;;;;;;;1.33;0.95;;;28.30;56.30;;;;;;4994802;28;20046;-70
2022/08/08 13:22:14;;;;;;;1.50;1.10;;;28.40;56.40;;;;;;5010940;28;20129;-74
2022/08/08 13:24:40;;;;;;;4.32;1.20;;;28.20;56.50;;;;;;5014095;28;20116;-66
2022/08/08 13:27:26;;;;;;;0.80;0.75;;;28.40;56.40;;;;;;5014192;28;20405;-69
2022/08/08 13:29:57;;;;;;;1.90;0.90;;;28.50;56.30;;;;;;5014209;28;20072;-67
2022/08/08 13:32:24;;;;;;;3.63;0.90;;;28.30;57.20;;;;;;5013408;28;20096;-72
2022/08/08 13:34:52;;;;;;;1.25;0.98;;;28.40;57.10;;;;;;5013514;28;20052;-71
2022/08/08 13:37:18;;;;;;;1.00;0.88;;;28.40;57.10;;;;;;5013844;28;20053;-68
2022/08/08 13:40:05;;;;;;;1.15;1.00;;;28.60;57.20;;;;;;5010521;28;20544;-74
2022/08/08 13:42:31;;;;;;;1.63;0.93;;;29.00;56.50;;;;;;5013050;28;20048;-66
2022/08/08 13:45:01;;;;;;;0.93;0.80;;;28.70;56.10;;;;;;5013605;28;20037;-67
2022/08/08 13:47:27;;;;;;;1.13;1.00;;;28.80;56.30;;;;;;5013452;28;20048;-70
2022/08/08 13:50:03;;;;;;;1.98;0.98;;;28.60;56.30;;;;;;5011382;28;20084;-72
2022/08/08 13:52:29;;;;;;;1.00;0.90;;;28.60;55.10;;;;;;5010307;28;20448;-70
2022/08/08 13:54:57;;;;;;;1.30;0.73;;;28.80;55.10;;;;;;5008456;28;20096;-70
2022/08/08 13:57:33;;;;;;;2.13;1.02;;;28.70;55.70;;;;;;5022844;28;20608;-69
2022/08/08 14:00:07;;;;;;;2.00;0.90;;;29.20;56.00;;;;;;5017084;28;20041;-69
2022/08/08 14:02:34;;;;;;;3.65;0.95;;;29.30;55.40;;;;;;5010345;28;20550;-72
2022/08/08 14:05:05;;;;;;;1.15;0.95;;;28.90;55.40;;;;;;5009244;28;20042;-71
2022/08/08 14:07:46;;;;;;;0.98;0.70;;;28.70;55.40;;;;;;5009999;28;20125;-69
2022/08/08 14:10:18;;;;;;;1.08;0.98;;;28.80;53.00;;;;;;5004231;28;20104;-71
2022/08/08 14:12:45;;;;;;;1.73;0.82;;;28.60;54.30;;;;;;5010076;28;20046;-72
2022/08/08 14:15:25;;;;;;;1.10;1.00;;;29.20;55.50;;;;;;5007969;28;20049;-70
2022/08/08 14:18:08;;;;;;;1.38;0.90;;;29.70;53.90;;;;;;5008699;28;20049;-69
2022/08/08 14:20:37;;;;;;;2.63;1.30;;;29.40;55.90;;;;;;5010671;28;20053;-70
2022/08/08 14:23:14;;;;;;;1.13;0.93;;;29.00;56.80;;;;;;5009936;28;20041;-73
2022/08/08 14:25:56;;;;;;;1.20;1.00;;;28.70;56.60;;;;;;5005598;28;20273;-73
2022/08/08 14:28:23;;;;;;;2.10;1.00;;;28.90;56.50;;;;;;5006215;28;20045;-73
2022/08/08 14:30:54;;;;;;;4.65;0.95;;;28.70;55.90;;;;;;5009711;28;20041;-73
2022/08/08 14:33:28;;;;;;;2.30;1.20;;;28.90;55.80;;;;;;5006790;28;20045;-70
2022/08/08 14:36:12;;;;;;;1.38;0.80;;;28.80;56.60;;;;;;5010278;28;20084;-70
2022/08/08 14:38:40;;;;;;;1.55;1.00;;;29.10;54.30;;;;;;5007048;28;20049;-71
2022/08/08 14:41:15;;;;;;;2.03;1.00;;;28.90;54.00;;;;;;5008969;28;20077;-72
2022/08/08 14:43:48;;;;;;;1.00;0.90;;;29.00;54.90;;;;;;5008408;28;20041;-74
2022/08/08 14:46:19;;;;;;;0.75;0.75;;;29.20;54.60;;;;;;5007962;28;20069;-72
2022/08/08 14:48:47;;;;;;;0.93;0.80;;;28.80;53.70;;;;;;5009063;28;20042;-73
2022/08/08 14:51:14;;;;;;;1.05;0.90;;;28.90;53.00;;;;;;5009913;28;20688;-73
2022/08/08 14:53:42;;;;;;;1.23;1.13;;;28.90;54.70;;;;;;5005099;28;21178;-72
2022/08/08 14:56:08;;;;;;;1.00;0.85;;;29.00;56.20;;;;;;5008494;28;20077;-71
2022/08/08 14:58:34;;;;;;;1.88;1.02;;;28.90;55.40;;;;;;5007710;28;20034;-73
2022/08/08 15:01:01;;;;;;;1.67;1.45;;;28.90;56.30;;;;;;5017042;28;20114;-71
2022/08/08 15:03:26;;;;;;;2.90;1.10;;;28.80;54.40;;;;;;5020115;28;20046;-73
2022/08/08 15:05:52;;;;;;;1.23;0.75;;;28.90;54.40;;;;;;5010267;28;20136;-72
2022/08/08 15:08:18;;;;;;;1.30;0.70;;;28.70;52.90;;;;;;5011636;28;20054;-73
2022/08/08 15:10:44;;;;;;;1.90;1.33;;;28.80;53.10;;;;;;5012127;28;20092;-71
2022/08/08 15:13:14;;;;;;;0.93;0.90;;;29.10;54.00;;;;;;5013724;28;20080;-71
2022/08/08 15:15:40;;;;;;;1.00;0.85;;;29.00;53.60;;;;;;5014161;28;20081;-72
2022/08/08 15:18:08;;;;;;;1.85;1.00;;;28.90;53.20;;;;;;5013844;28;20042;-73
2022/08/08 15:20:34;;;;;;;0.98;0.88;;;28.80;53.50;;;;;;5030173;28;20128;-72
2022/08/08 15:23:00;;;;;;;2.70;1.13;;;28.80;52.70;;;;;;5013540;28;20557;-72
2022/08/08 15:25:26;;;;;;;1.23;1.00;;;28.70;53.50;;;;;;5014238;28;20042;-71
2022/08/08 15:27:53;;;;;;;0.98;0.90;;;28.80;53.40;;;;;;5013727;28;20571;-70
2022/08/08 15:30:19;;;;;;;1.58;0.88;;;29.00;54.00;;;;;;5013470;28;20041;-71
2022/08/08 15:32:45;;;;;;;2.00;1.00;;;28.90;53.80;;;;;;5015252;28;20073;-72
2022/08/08 15:35:12;;;;;;;2.17;0.80;;;29.10;53.50;;;;;;5013452;28;20072;-71
2022/08/08 15:37:38;;;;;;;1.05;0.90;;;29.00;54.30;;;;;;5013750;28;20053;-72
2022/08/08 15:40:05;;;;;;;1.80;0.80;;;29.10;54.30;;;;;;5014164;28;20038;-72
2022/08/08 15:42:31;;;;;;;1.30;0.98;;;29.00;54.00;;;;;;5012642;28;20523;-70
2022/08/08 15:44:57;;;;;;;1.67;0.93;;;29.00;54.70;;;;;;5015166;28;20045;-72
2022/08/08 15:47:23;;;;;;;1.17;0.90;;;28.90;55.00;;;;;;5012610;28;20472;-72
2022/08/08 15:49:50;;;;;;;1.17;1.08;;;29.00;54.60;;;;;;5018163;28;20044;-69
2022/08/08 15:52:18;;;;;;;1.58;0.95;;;28.70;54.60;;;;;;5034419;28;20504;-70
2022/08/08 15:54:45;;;;;;;1.00;0.90;;;28.70;54.50;;;;;;5019697;28;20050;-71
2022/08/08 15:57:13;;;;;;;4.78;1.05;;;28.90;55.00;;;;;;5014412;28;20068;-71
2022/08/08 15:59:40;;;;;;;1.50;0.90;;;28.70;55.00;;;;;;5011296;28;20050;-69
2022/08/08 16:02:08;;;;;;;4.20;1.00;;;28.70;55.00;;;;;;5010100;28;20125;-68
2022/08/08 16:04:35;;;;;;;2.92;1.05;;;28.90;54.20;;;;;;5014581;28;20540;-71
2022/08/08 16:07:02;;;;;;;3.00;1.15;;;28.90;54.50;;;;;;5012293;28;20497;-69
2022/08/08 16:09:28;;;;;;;0.70;0.65;;;28.90;54.80;;;;;;5012318;28;20072;-71
2022/08/08 16:11:54;;;;;;;1.48;1.10;;;28.90;55.10;;;;;;5013241;28;20096;-71
2022/08/08 16:14:20;;;;;;;1.50;0.90;;;29.00;55.00;;;;;;5011160;28;20044;-71
2022/08/08 16:16:46;;;;;;;1.10;1.00;;;28.90;54.50;;;;;;5011132;28;20061;-72
2022/08/08 16:19:12;;;;;;;1.30;0.90;;;28.70;54.80;;;;;;5011639;28;20038;-71
2022/08/08 16:21:38;;;;;;;1.05;0.82;;;28.70;54.50;;;;;;5012491;28;20456;-70
2022/08/08 16:24:06;;;;;;;0.77;0.77;;;28.70;54.40;;;;;;5012787;28;20042;-70
2022/08/08 16:26:35;;;;;;;1.88;1.00;;;28.70;54.10;;;;;;5014332;28;20129;-71
2022/08/08 16:29:02;;;;;;;0.85;0.70;;;28.60;54.30;;;;;;5010126;28;20034;-69
2022/08/08 16:31:28;;;;;;;1.58;0.88;;;28.60;54.60;;;;;;5013516;28;20095;-71
2022/08/08 16:33:54;;;;;;;1.75;1.17;;;28.60;54.80;;;;;;5013150;28;20121;-71
2022/08/08 16:36:20;;;;;;;1.13;0.80;;;28.50;54.70;;;;;;5012793;28;20085;-69
2022/08/08 16:38:46;;;;;;;1.65;0.90;;;28.50;54.40;;;;;;5012998;28;20506;-71
2022/08/08 16:41:12;;;;;;;1.40;1.00;;;28.60;54.20;;;;;;5014322;28;20046;-70
2022/08/08 16:43:38;;;;;;;1.55;1.10;;;28.50;53.70;;;;;;5014226;28;20030;-71
2022/08/08 16:46:04;;;;;;;1.05;0.80;;;28.50;54.10;;;;;;5014339;28;20056;-70
2022/08/08 16:48:30;;;;;;;0.93;0.63;;;28.50;53.50;;;;;;5014287;28;20038;-69
2022/08/08 16:50:56;;;;;;;1.80;0.80;;;28.50;53.70;;;;;;5013320;28;20054;-72
2022/08/08 16:53:22;;;;;;;1.17;0.95;;;28.40;53.30;;;;;;5012246;28;20396;-68
2022/08/08 16:55:48;;;;;;;0.70;0.70;;;28.50;53.40;;;;;;5010565;28;20546;-69
2022/08/08 16:58:16;;;;;;;1.30;0.80;;;28.50;52.70;;;;;;5011810;28;20390;-69
2022/08/08 17:00:43;;;;;;;1.42;1.02;;;28.40;53.10;;;;;;5014381;28;20095;-68
2022/08/08 17:03:09;;;;;;;2.05;0.90;;;28.30;53.00;;;;;;5012632;28;20042;-72
2022/08/08 17:05:35;;;;;;;1.00;0.90;;;28.30;52.90;;;;;;5011174;28;20048;-68
2022/08/08 17:08:01;;;;;;;1.30;0.73;;;28.20;53.00;;;;;;5011796;28;20076;-68
2022/08/08 17:10:27;;;;;;;1.40;0.80;;;28.20;53.20;;;;;;5013929;28;20042;-68
2022/08/08 17:12:52;;;;;;;1.10;0.70;;;28.30;53.70;;;;;;5013648;28;20496;-67
2022/08/08 17:15:18;;;;;;;0.60;0.60;;;28.30;53.40;;;;;;5011856;28;20133;-73
2022/08/08 17:17:45;;;;;;;2.42;0.88;;;28.20;53.20;;;;;;5013329;28;20073;-72
2022/08/08 17:20:12;;;;;;;0.70;0.60;;;28.20;53.40;;;;;;5013965;28;20059;-71
2022/08/08 17:22:39;;;;;;;3.95;0.85;;;28.30;53.10;;;;;;5031184;28;20090;-69
2022/08/08 17:25:05;;;;;;;4.28;0.80;;;28.30;53.20;;;;;;5031441;28;20056;-74
2022/08/08 17:27:31;;;;;;;1.08;0.82;;;28.10;53.30;;;;;;5011091;28;20176;-70
2022/08/08 17:29:57;;;;;;;0.95;0.60;;;28.00;53.70;;;;;;5010427;28;20453;-71
2022/08/08 17:32:25;;;;;;;2.10;1.35;;;28.00;54.20;;;;;;5011130;28;20058;-70
2022/08/08 17:34:53;;;;;;;1.83;0.90;;;27.90;53.80;;;;;;5009940;28;20503;-74
2022/08/08 17:37:22;;;;;;;3.55;1.10;;;27.90;54.00;;;;;;5011096;28;20053;-75
2022/08/08 17:39:48;;;;;;;1.95;0.98;;;27.80;54.00;;;;;;5011863;28;20465;-74
2022/08/08 17:42:35;;;;;;;1.08;0.73;;;27.80;54.10;;;;;;5092729;27;20392;-67
2022/08/08 17:45:02;;;;;;;3.53;0.70;;;27.80;54.70;;;;;;5102129;28;20443;-68
2022/08/08 17:47:28;;;;;;;1.42;0.85;;;27.60;54.30;;;;;;5089538;28;20415;-72
2022/08/08 17:49:54;;;;;;;1.05;0.90;;;27.60;54.70;;;;;;5087579;28;20047;-72
2022/08/08 17:52:20;;;;;;;1.55;1.05;;;27.60;54.90;;;;;;5087549;28;20052;-72
2022/08/08 17:54:46;;;;;;;2.30;0.85;;;27.50;54.60;;;;;;5087846;28;20066;-68
2022/08/08 17:57:12;;;;;;;2.42;0.95;;;27.40;54.80;;;;;;5089060;28;20044;-68
2022/08/08 17:59:38;;;;;;;1.10;0.70;;;27.30;54.90;;;;;;5088948;28;20581;-69
2022/08/08 18:02:05;;;;;;;0.82;0.70;;;27.40;55.00;;;;;;5089055;28;20140;-72
2022/08/08 18:04:35;;;;;;;1.00;0.90;;;27.30;55.10;;;;;;5095698;28;20443;-71
2022/08/08 18:07:03;;;;;;;0.98;0.88;;;27.20;55.40;;;;;;5107955;28;20043;-67
2022/08/08 18:09:30;;;;;;;1.20;0.88;;;27.30;55.70;;;;;;5108403;28;20027;-67
2022/08/08 18:11:57;;;;;;;0.95;0.80;;;27.20;55.50;;;;;;5109304;28;20096;-67
2022/08/08 18:14:23;;;;;;;0.70;0.70;;;27.10;55.60;;;;;;5109926;28;20038;-71
2022/08/08 18:16:49;;;;;;;2.20;0.70;;;27.00;55.80;;;;;;5097092;28;20040;-67
2022/08/08 18:19:17;;;;;;;1.40;0.82;;;27.00;55.90;;;;;;5087414;28;20040;-67
2022/08/08 18:21:44;;;;;;;1.08;0.80;;;26.90;56.00;;;;;;5086637;28;20505;-72
2022/08/08 18:24:11;;;;;;;1.58;0.90;;;26.80;56.30;;;;;;5088325;28;20138;-72
2022/08/08 18:26:37;;;;;;;1.63;0.80;;;26.80;56.20;;;;;;5089494;28;20040;-69
2022/08/08 18:29:03;;;;;;;0.98;0.80;;;26.70;56.40;;;;;;5089151;28;20072;-68
2022/08/08 18:31:29;;;;;;;1.23;0.90;;;26.60;56.10;;;;;;5088350;28;20035;-72
2022/08/08 18:33:55;;;;;;;0.73;0.73;;;26.60;56.30;;;;;;5088601;28;20024;-69
2022/08/08 18:36:21;;;;;;;1.38;0.73;;;26.40;56.40;;;;;;5088985;28;20032;-72
2022/08/08 18:38:47;;;;;;;1.10;0.93;;;26.40;56.40;;;;;;5089077;28;20533;-67
2022/08/08 18:41:14;;;;;;;1.20;0.95;;;26.20;56.40;;;;;;5088519;28;20044;-76
2022/08/08 18:43:39;;;;;;;1.67;1.00;;;26.20;56.60;;;;;;5088537;28;20043;-73
2022/08/08 18:46:06;;;;;;;0.70;0.70;;;26.10;56.80;;;;;;5086389;28;20067;-69
2022/08/08 18:48:32;;;;;;;2.13;0.77;;;26.00;56.80;;;;;;5088133;28;20410;-73
2022/08/08 18:50:58;;;;;;;0.85;0.80;;;26.00;57.00;;;;;;5088501;28;20036;-71
2022/08/08 18:53:24;;;;;;;1.88;0.77;;;25.90;57.10;;;;;;5080881;28;20055;-68
2022/08/08 18:55:50;;;;;;;0.90;0.73;;;25.80;57.20;;;;;;5075104;28;20075;-67
2022/08/08 18:58:20;;;;;;;0.82;0.80;;;25.70;57.20;;;;;;5076500;28;20118;-73
2022/08/08 19:00:46;;;;;;;1.70;0.75;;;25.70;57.20;;;;;;5073743;28;20056;-68
2022/08/08 19:03:12;;;;;;;0.88;0.77;;;25.70;57.80;;;;;;5073877;28;20032;-71
2022/08/08 19:05:39;;;;;;;3.58;1.00;;;25.60;57.20;;;;;;5074161;28;20051;-70
2022/08/08 19:08:13;;;;;;;1.70;0.80;;;25.70;57.50;;;;;;5074260;28;20082;-68
2022/08/08 19:10:39;;;;;;;1.52;1.05;;;25.50;57.40;;;;;;5074107;28;20040;-70
2022/08/08 19:13:05;;;;;;;1.10;0.90;;;25.50;57.10;;;;;;5075202;28;20530;-70
2022/08/08 19:15:31;;;;;;;1.23;0.90;;;25.60;57.70;;;;;;5075306;28;20033;-71
2022/08/08 19:17:57;;;;;;;1.38;1.05;;;25.50;57.70;;;;;;5075351;28;20507;-70
2022/08/08 19:20:23;;;;;;;2.53;1.00;;;25.50;57.30;;;;;;5075231;28;20124;-69
2022/08/08 19:22:48;;;;;;;1.17;0.60;;;25.40;57.30;;;;;;5075230;28;20052;-71
2022/08/08 19:25:15;;;;;;;1.10;0.80;;;25.40;57.80;;;;;;5075104;28;20047;-67
2022/08/08 19:27:41;;;;;;;0.70;0.70;;;25.30;57.60;;;;;;5074672;28;20044;-69
2022/08/08 19:30:07;;;;;;;0.90;0.80;;;25.30;57.60;;;;;;5073977;28;20051;-68
2022/08/08 19:32:33;;;;;;;1.13;0.77;;;25.20;57.50;;;;;;5072490;28;20041;-68
2022/08/08 19:34:59;;;;;;;0.80;0.80;;;25.20;57.20;;;;;;5074271;28;20040;-69
2022/08/08 19:37:25;;;;;;;0.80;0.70;;;25.10;57.30;;;;;;5074333;28;20076;-68
2022/08/08 19:39:51;;;;;;;0.88;0.77;;;24.90;57.40;;;;;;5074839;28;20524;-72
2022/08/08 19:42:17;;;;;;;2.65;0.77;;;24.90;57.30;;;;;;5073003;28;20048;-68
2022/08/08 19:44:42;;;;;;;1.00;0.73;;;24.80;57.30;;;;;;5073944;28;20484;-68
2022/08/08 19:47:08;;;;;;;1.50;0.70;;;24.70;57.20;;;;;;5073513;28;20045;-72
2022/08/08 19:49:34;;;;;;;2.03;0.70;;;24.80;57.20;;;;;;5072866;28;20043;-72
2022/08/08 19:52:00;;;;;;;1.05;0.70;;;24.70;56.90;;;;;;5071768;28;20035;-73
2022/08/08 19:54:26;;;;;;;0.77;0.60;;;24.70;57.00;;;;;;5072858;28;20482;-71
2022/08/08 19:56:51;;;;;;;0.73;0.70;;;24.60;57.00;;;;;;5072738;28;20040;-69
2022/08/08 19:59:17;;;;;;;2.22;0.95;;;24.60;57.40;;;;;;5073043;28;20044;-69
2022/08/08 20:01:43;;;;;;;2.15;0.70;;;24.50;57.40;;;;;;5074485;28;20170;-72
2022/08/08 20:04:09;;;;;;;1.60;0.73;;;24.50;57.50;;;;;;5073155;28;20044;-71
2022/08/08 20:06:35;;;;;;;5.68;0.90;;;24.50;57.90;;;;;;5073784;28;20040;-75
2022/08/08 20:09:00;;;;;;;0.80;0.80;;;24.50;58.70;;;;;;5073704;28;20044;-73
2022/08/08 20:11:27;;;;;;;1.20;0.70;;;24.50;56.70;;;;;;5073666;28;20526;-72
2022/08/08 20:13:54;;;;;;;2.25;1.15;;;24.60;56.60;;;;;;5073974;28;20452;-69
2022/08/08 20:16:20;;;;;;;1.25;1.15;;;24.60;57.10;;;;;;5074098;28;20181;-68
2022/08/08 20:18:48;;;;;;;1.67;0.65;;;24.60;56.80;;;;;;5073929;28;20047;-73
2022/08/08 20:21:14;;;;;;;0.73;0.63;;;24.50;56.70;;;;;;5073745;28;20072;-72
2022/08/08 20:23:41;;;;;;;1.60;0.60;;;24.50;56.80;;;;;;5072694;28;20414;-70
2022/08/08 20:26:07;;;;;;;0.80;0.73;;;24.50;57.00;;;;;;5073749;28;20035;-73
2022/08/08 20:28:32;;;;;;;2.17;0.77;;;24.50;57.50;;;;;;5073150;28;20040;-73
2022/08/08 20:30:58;;;;;;;1.25;0.65;;;24.50;57.30;;;;;;5073150;28;20123;-71
2022/08/08 20:33:25;;;;;;;0.93;0.77;;;24.50;57.00;;;;;;5073089;28;20037;-70
2022/08/08 20:35:52;;;;;;;1.35;0.90;;;24.60;57.60;;;;;;5073125;28;20061;-69
2022/08/08 20:38:18;;;;;;;0.98;0.82;;;24.70;56.60;;;;;;5073036;28;20044;-68
2022/08/08 20:40:46;;;;;;;0.88;0.70;;;24.60;57.20;;;;;;5053595;28;20483;-66
2022/08/08 20:43:12;;;;;;;0.98;0.80;;;24.70;56.70;;;;;;5070368;28;20487;-66
2022/08/08 20:45:38;;;;;;;1.30;0.80;;;24.60;56.70;;;;;;5071946;28;20044;-66
2022/08/08 20:48:04;;;;;;;2.05;0.75;;;24.60;56.90;;;;;;5059456;28;20079;-65
2022/08/08 20:50:32;;;;;;;1.80;0.80;;;24.60;57.10;;;;;;5052649;28;20100;-66
2022/08/08 20:53:01;;;;;;;0.95;0.70;;;24.60;56.90;;;;;;5052766;28;20045;-67
2022/08/08 20:55:28;;;;;;;1.08;0.80;;;24.60;57.10;;;;;;5051429;28;20538;-68
2022/08/08 20:57:57;;;;;;;0.70;0.70;;;24.70;56.50;;;;;;5051559;28;20394;-66
2022/08/08 21:00:23;;;;;;;0.82;0.73;;;24.60;56.70;;;;;;5050287;28;20424;-66
2022/08/08 21:02:49;;;;;;;0.80;0.80;;;24.60;56.40;;;;;;5051432;28;20044;-66
2022/08/08 21:05:15;;;;;;;1.55;0.93;;;24.70;56.30;;;;;;5049613;28;20051;-66
2022/08/08 21:07:41;;;;;;;1.98;0.80;;;24.70;56.60;;;;;;5049347;28;20056;-67
2022/08/08 21:10:08;;;;;;;2.15;0.70;;;24.70;56.10;;;;;;5056135;28;20036;-66
2022/08/08 21:12:35;;;;;;;1.83;0.90;;;24.90;56.10;;;;;;5057292;28;20098;-66
2022/08/08 21:15:03;;;;;;;1.17;0.73;;;25.00;55.40;;;;;;5048985;28;20047;-66
2022/08/08 21:17:29;;;;;;;0.80;0.73;;;24.90;55.50;;;;;;5050458;28;20029;-66
2022/08/08 21:19:55;;;;;;;1.88;0.95;;;24.90;55.40;;;;;;5052389;28;20048;-66
2022/08/08 21:22:20;;;;;;;3.08;0.65;;;24.90;55.50;;;;;;5053201;28;20048;-66
2022/08/08 21:24:46;;;;;;;0.80;0.80;;;24.90;55.60;;;;;;5052514;28;20408;-66
2022/08/08 21:27:12;;;;;;;1.23;0.95;;;25.00;55.30;;;;;;5053023;28;20507;-66
2022/08/08 21:29:38;;;;;;;1.10;0.80;;;24.90;55.40;;;;;;5052950;28;20037;-66
2022/08/08 21:32:06;;;;;;;2.13;0.80;;;24.90;55.50;;;;;;5055487;28;20512;-66
2022/08/08 21:34:33;;;;;;;2.28;0.95;;;24.80;55.50;;;;;;5064057;28;20093;-66
2022/08/08 21:36:59;;;;;;;1.23;0.75;;;25.00;55.30;;;;;;5072364;28;20044;-66
2022/08/08 21:39:25;;;;;;;0.70;0.70;;;25.00;55.20;;;;;;5070667;28;20403;-68
2022/08/08 21:41:51;;;;;;;3.30;1.00;;;25.00;55.90;;;;;;5070536;28;20040;-68
2022/08/08 21:44:18;;;;;;;1.10;0.98;;;25.10;55.40;;;;;;5070350;28;20043;-68
2022/08/08 21:46:44;;;;;;;0.93;0.80;;;25.10;55.50;;;;;;5070609;28;20045;-68
2022/08/08 21:49:11;;;;;;;218.77;21.35;;;25.10;55.50;;;;;;5070483;28;20036;-65
2022/08/08 21:51:42;;;;;;;1.13;0.90;;;25.00;55.50;;;;;;5072356;28;20048;-66
2022/08/08 21:54:15;;;;;;;1.00;0.90;;;25.10;55.60;;;;;;5070580;28;20467;-68